createdAt,value
2017-10-19T00:01:25.685Z,66.00
2017-10-19T00:03:52.027Z,65.20
2017-10-19T00:06:18.377Z,65.10
2017-10-19T00:08:44.823Z,65.10
2017-10-19T00:11:11.277Z,66.10
2017-10-19T00:13:37.597Z,66.10
2017-10-19T00:16:03.927Z,65.20
2017-10-19T00:18:30.994Z,65.30
2017-10-19T00:20:58.138Z,65.90
2017-10-19T00:23:25.218Z,66.20
2017-10-19T00:25:52.287Z,65.40
2017-10-19T00:28:19.338Z,65.30
2017-10-19T00:30:46.411Z,66.20
2017-10-19T00:33:12.774Z,66.60
2017-10-19T00:35:39.165Z,66.10
2017-10-19T00:38:06.300Z,65.20
2017-10-19T00:40:32.663Z,65.20
2017-10-19T00:42:58.995Z,65.60
2017-10-19T00:45:26.221Z,65.70
2017-10-19T00:47:52.597Z,66.40
2017-10-19T00:50:19.565Z,66.00
2017-10-19T00:52:46.002Z,66.10
2017-10-19T00:55:12.408Z,65.50
2017-10-19T00:57:38.864Z,66.10
2017-10-19T01:00:05.636Z,66.10
2017-10-19T01:02:31.994Z,65.70
2017-10-19T01:04:58.349Z,66.00
2017-10-19T01:07:24.735Z,66.00
2017-10-19T01:09:51.534Z,66.50
2017-10-19T01:12:17.865Z,66.00
2017-10-19T01:14:44.195Z,65.50
2017-10-19T01:17:10.534Z,65.80
2017-10-19T01:19:36.935Z,65.80
2017-10-19T01:22:04.005Z,66.00
2017-10-19T01:24:30.333Z,65.90
2017-10-19T01:26:57.458Z,65.60
2017-10-19T01:29:23.848Z,65.50
2017-10-19T01:31:50.462Z,66.50
2017-10-19T01:34:16.811Z,65.70
2017-10-19T01:36:43.112Z,66.70
2017-10-19T01:39:09.673Z,65.80
2017-10-19T01:41:36.003Z,65.70
2017-10-19T01:44:02.344Z,65.80
2017-10-19T01:46:28.768Z,65.80
2017-10-19T01:48:55.112Z,65.80
2017-10-19T01:51:22.368Z,67.70
2017-10-19T01:53:49.445Z,65.90
2017-10-19T01:56:15.786Z,65.90
2017-10-19T01:58:42.161Z,65.90
2017-10-19T02:01:08.543Z,65.90
2017-10-19T02:03:35.837Z,66.30
2017-10-19T02:06:02.185Z,66.30
2017-10-19T02:08:28.534Z,66.40
2017-10-19T02:10:54.862Z,66.00
2017-10-19T02:13:21.965Z,66.00
2017-10-19T02:15:48.310Z,65.80
2017-10-19T02:18:14.641Z,66.00
2017-10-19T02:20:41.751Z,66.60
2017-10-19T02:23:08.073Z,66.60
2017-10-19T02:25:34.409Z,66.30
2017-10-19T02:28:00.736Z,65.90
2017-10-19T02:30:27.121Z,66.10
2017-10-19T02:32:54.241Z,66.10
2017-10-19T02:35:20.597Z,66.10
2017-10-19T02:37:46.914Z,66.10
2017-10-19T02:40:13.714Z,66.40
2017-10-19T02:42:40.047Z,66.50
2017-10-19T02:45:06.397Z,65.90
2017-10-19T02:47:32.784Z,66.40
2017-10-19T02:49:59.282Z,66.50
2017-10-19T02:52:25.628Z,66.20
2017-10-19T02:54:52.097Z,66.30
2017-10-19T02:57:19.297Z,67.20
2017-10-19T02:59:45.840Z,67.20
2017-10-19T03:02:12.180Z,66.30
2017-10-19T03:04:38.522Z,66.30
2017-10-19T03:07:04.954Z,67.50
2017-10-19T03:09:32.074Z,66.30
2017-10-19T03:11:58.534Z,66.10
2017-10-19T03:14:24.868Z,67.40
2017-10-19T03:16:51.266Z,66.30
2017-10-19T03:19:17.866Z,66.30
2017-10-19T03:21:44.214Z,66.30
2017-10-19T03:24:11.289Z,66.30
2017-10-19T03:26:37.686Z,66.30
2017-10-19T03:29:04.029Z,66.80
2017-10-19T03:31:30.474Z,66.30
2017-10-19T03:33:56.826Z,66.30
2017-10-19T03:36:23.170Z,66.30
2017-10-19T03:38:50.309Z,66.30
2017-10-19T03:41:16.808Z,66.30
2017-10-19T03:43:43.175Z,66.20
2017-10-19T03:46:10.372Z,66.30
2017-10-19T03:48:37.899Z,66.30
2017-10-19T03:51:05.014Z,67.30
2017-10-19T03:53:31.349Z,67.20
2017-10-19T03:55:57.695Z,66.30
2017-10-19T03:58:24.036Z,66.90
2017-10-19T04:00:50.416Z,66.60
2017-10-19T04:03:16.825Z,66.70
2017-10-19T04:05:43.157Z,66.50
2017-10-19T04:08:09.590Z,67.60
2017-10-19T04:10:36.654Z,67.10
2017-10-19T04:13:03.030Z,67.10
2017-10-19T04:15:29.373Z,66.80
2017-10-19T04:17:55.850Z,66.50
2017-10-19T04:20:22.162Z,67.10
2017-10-19T04:22:48.660Z,66.50
2017-10-19T04:25:15.747Z,66.50
2017-10-19T04:27:42.074Z,66.40
2017-10-19T04:30:08.428Z,65.70
2017-10-19T04:32:34.750Z,66.40
2017-10-19T04:35:01.857Z,66.30
2017-10-19T04:37:28.205Z,66.40
2017-10-19T04:39:54.556Z,65.50
2017-10-19T04:42:21.705Z,66.40
2017-10-19T04:44:48.014Z,66.80
2017-10-19T04:47:15.118Z,66.50
2017-10-19T04:49:41.458Z,66.50
2017-10-19T04:52:07.812Z,66.60
2017-10-19T04:54:34.130Z,66.80
2017-10-19T04:57:00.465Z,66.50
2017-10-19T04:59:27.253Z,66.80
2017-10-19T05:01:54.353Z,66.60
2017-10-19T05:04:21.437Z,66.60
2017-10-19T05:06:47.784Z,66.90
2017-10-19T05:09:14.236Z,66.60
2017-10-19T05:11:40.824Z,66.60
2017-10-19T05:14:07.165Z,66.70
2017-10-19T05:16:33.501Z,66.90
2017-10-19T05:18:59.848Z,66.60
2017-10-19T05:21:26.229Z,66.60
2017-10-19T05:23:52.610Z,66.70
2017-10-19T05:26:19.017Z,66.60
2017-10-19T05:28:46.170Z,67.50
2017-10-19T05:31:12.556Z,66.70
2017-10-19T05:33:39.078Z,66.80
2017-10-19T05:36:06.184Z,66.80
2017-10-19T05:38:32.563Z,66.90
2017-10-19T05:40:58.881Z,66.70
2017-10-19T05:43:25.215Z,66.70
2017-10-19T05:45:51.541Z,66.20
2017-10-19T05:48:17.906Z,66.60
2017-10-19T05:50:44.276Z,66.60
2017-10-19T05:53:10.633Z,66.00
2017-10-19T05:55:36.990Z,65.60
2017-10-19T05:58:03.353Z,66.00
2017-10-19T06:00:29.688Z,66.00
2017-10-19T06:02:56.061Z,66.30
2017-10-19T06:05:22.404Z,66.30
2017-10-19T06:10:46.330Z,66.30
2017-10-19T06:13:12.700Z,66.20
2017-10-19T06:15:39.120Z,66.20
2017-10-19T06:18:06.228Z,66.20
2017-10-19T06:20:33.312Z,66.20
2017-10-19T06:22:59.677Z,66.10
2017-10-19T06:25:26.061Z,66.60
2017-10-19T06:27:52.397Z,66.80
2017-10-19T06:30:18.763Z,67.80
2017-10-19T06:32:45.968Z,68.30
2017-10-19T06:35:12.333Z,68.30
2017-10-19T06:37:38.911Z,68.80
2017-10-19T06:40:05.260Z,67.90
2017-10-19T06:42:31.619Z,68.20
2017-10-19T06:44:58.694Z,68.00
2017-10-19T06:47:25.057Z,68.20
2017-10-19T06:49:51.352Z,67.60
2017-10-19T06:52:18.371Z,67.40
2017-10-19T06:54:44.726Z,66.80
2017-10-19T06:57:11.137Z,66.60
2017-10-19T06:59:38.388Z,66.60
2017-10-19T07:02:05.466Z,66.70
2017-10-19T07:04:31.901Z,66.70
2017-10-19T07:06:58.284Z,66.70
2017-10-19T07:09:24.676Z,66.70
2017-10-19T07:11:51.044Z,66.70
2017-10-19T07:14:17.427Z,66.70
2017-10-19T07:16:43.783Z,66.80
2017-10-19T07:19:10.189Z,67.00
2017-10-19T07:21:37.259Z,66.70
2017-10-19T07:24:04.388Z,66.70
2017-10-19T07:26:30.720Z,66.70
2017-10-19T07:28:57.810Z,66.80
2017-10-19T07:31:24.887Z,66.80
2017-10-19T07:33:54.280Z,66.70
2017-10-19T07:36:20.666Z,66.80
2017-10-19T07:38:47.038Z,66.90
2017-10-19T07:41:18.333Z,66.80
2017-10-19T07:43:44.679Z,67.00
2017-10-19T07:46:11.776Z,67.60
2017-10-19T07:48:38.120Z,67.50
2017-10-19T07:51:04.457Z,66.80
2017-10-19T07:53:30.823Z,67.00
2017-10-19T07:56:00.839Z,67.20
2017-10-19T07:58:27.334Z,67.40
2017-10-19T08:00:53.703Z,67.40
2017-10-19T08:03:20.063Z,68.40
2017-10-19T08:05:47.251Z,68.20
2017-10-19T08:08:13.650Z,67.90
2017-10-19T08:10:39.985Z,68.10
2017-10-19T08:13:06.354Z,68.50
2017-10-19T08:15:35.182Z,67.50
2017-10-19T08:18:01.571Z,67.80
2017-10-19T08:20:27.841Z,67.60
2017-10-19T08:22:54.197Z,66.90
2017-10-19T08:25:20.565Z,66.70
2017-10-19T08:27:46.890Z,65.00
2017-10-19T08:30:13.234Z,65.10
2017-10-19T08:32:39.587Z,65.60
2017-10-19T08:35:10.198Z,64.10
2017-10-19T08:37:36.371Z,65.20
2017-10-19T08:40:03.253Z,64.10
2017-10-19T08:42:29.386Z,63.90
2017-10-19T08:44:55.512Z,63.60
2017-10-19T08:47:21.654Z,63.90
2017-10-19T08:49:47.985Z,63.20
2017-10-19T08:52:14.320Z,62.70
2017-10-19T08:54:45.744Z,63.30
2017-10-19T08:57:12.645Z,62.40
2017-10-19T08:59:38.961Z,62.50
2017-10-19T09:02:05.870Z,62.20
2017-10-19T09:04:32.737Z,61.10
2017-10-19T09:06:59.612Z,60.60
2017-10-19T09:09:25.772Z,60.60
2017-10-19T09:11:51.894Z,61.70
2017-10-19T09:14:18.047Z,61.70
2017-10-19T09:16:44.180Z,59.60
2017-10-19T09:19:10.388Z,60.20
2017-10-19T09:21:36.525Z,60.20
2017-10-19T09:24:03.397Z,60.90
2017-10-19T09:26:30.374Z,59.00
2017-10-19T09:28:56.555Z,59.00
2017-10-19T09:31:22.891Z,59.00
2017-10-19T09:33:49.232Z,59.30
2017-10-19T09:36:15.670Z,59.00
2017-10-19T09:38:42.035Z,58.10
2017-10-19T09:41:08.371Z,58.70
2017-10-19T09:43:34.683Z,59.10
2017-10-19T09:46:01.116Z,57.30
2017-10-19T09:48:28.190Z,58.60
2017-10-19T09:50:54.545Z,58.60
2017-10-19T09:53:21.637Z,57.90
2017-10-19T09:55:49.517Z,57.80
2017-10-19T09:58:16.367Z,57.70
2017-10-19T10:00:42.492Z,57.70
2017-10-19T10:03:09.446Z,54.90
2017-10-19T10:05:36.426Z,56.40
2017-10-19T10:08:02.649Z,56.20
2017-10-19T10:10:29.025Z,54.80
2017-10-19T10:12:55.516Z,55.40
2017-10-19T10:15:25.665Z,55.00
2017-10-19T10:17:51.809Z,55.50
2017-10-19T10:20:18.685Z,54.40
2017-10-19T10:22:45.695Z,53.30
2017-10-19T10:25:11.819Z,53.30
2017-10-19T10:27:37.960Z,54.10
2017-10-19T10:30:04.828Z,54.50
2017-10-19T10:32:30.975Z,53.80
2017-10-19T10:35:00.268Z,54.80
2017-10-19T10:37:26.403Z,54.20
2017-10-19T10:39:52.549Z,53.60
2017-10-19T10:42:18.679Z,55.30
2017-10-19T10:44:44.854Z,53.90
2017-10-19T10:47:11.016Z,52.30
2017-10-19T10:49:37.170Z,52.20
2017-10-19T10:52:04.045Z,53.10
2017-10-19T10:54:30.926Z,51.70
2017-10-19T10:57:01.485Z,51.60
2017-10-19T10:59:27.633Z,52.70
2017-10-19T11:01:54.597Z,51.10
2017-10-19T11:04:21.504Z,50.90
2017-10-19T11:06:47.638Z,50.90
2017-10-19T11:09:14.596Z,52.30
2017-10-19T11:11:40.756Z,52.30
2017-10-19T11:14:06.941Z,51.60
2017-10-19T11:16:39.434Z,52.50
2017-10-19T11:19:05.572Z,51.30
2017-10-19T11:21:31.771Z,49.90
2017-10-19T11:23:58.694Z,50.60
2017-10-19T11:26:24.853Z,50.60
2017-10-19T11:28:51.000Z,50.30
2017-10-19T11:31:17.887Z,48.40
2017-10-19T11:33:44.746Z,48.30
2017-10-19T11:36:12.603Z,48.30
2017-10-19T11:38:38.752Z,48.00
2017-10-19T11:41:04.897Z,48.20
2017-10-19T11:43:31.040Z,50.00
2017-10-19T11:45:57.171Z,48.30
2017-10-19T11:48:23.325Z,48.10
2017-10-19T11:50:49.465Z,47.80
2017-10-19T11:53:16.379Z,48.80
2017-10-19T11:55:42.513Z,48.80
2017-10-19T11:58:10.021Z,48.50
2017-10-19T12:00:36.181Z,48.50
2017-10-19T12:03:02.318Z,47.20
2017-10-19T12:05:28.437Z,48.80
2017-10-19T12:07:54.585Z,46.90
2017-10-19T12:10:20.712Z,46.90
2017-10-19T12:12:46.833Z,47.20
2017-10-19T12:15:13.749Z,47.60
2017-10-19T12:17:39.869Z,47.60
2017-10-19T12:20:10.547Z,46.20
2017-10-19T12:22:41.810Z,47.10
2017-10-19T12:25:08.699Z,47.10
2017-10-19T12:27:35.566Z,45.40
2017-10-19T12:30:02.549Z,46.90
2017-10-19T12:32:28.674Z,46.90
2017-10-19T12:34:54.822Z,45.10
2017-10-19T12:37:20.962Z,46.80
2017-10-19T12:39:47.222Z,45.90
2017-10-19T12:42:14.096Z,46.20
2017-10-19T12:44:41.004Z,46.20
2017-10-19T12:47:07.165Z,46.20
2017-10-19T12:49:33.382Z,44.90
2017-10-19T12:51:59.557Z,45.90
2017-10-19T12:54:26.442Z,45.40
2017-10-19T12:56:52.572Z,45.30
2017-10-19T12:59:18.822Z,46.30
2017-10-19T13:01:45.031Z,45.60
2017-10-19T13:04:11.905Z,43.20
2017-10-19T13:06:38.056Z,43.20
2017-10-19T13:09:04.229Z,44.20
2017-10-19T13:11:31.136Z,43.90
2017-10-19T13:13:57.278Z,43.90
2017-10-19T13:16:29.548Z,45.30
2017-10-19T13:18:56.703Z,45.60
2017-10-19T13:21:22.842Z,45.60
2017-10-19T13:23:48.989Z,44.70
2017-10-19T13:26:15.120Z,43.60
2017-10-19T13:28:41.259Z,44.10
2017-10-19T13:31:09.988Z,41.70
2017-10-19T13:33:36.157Z,41.70
2017-10-19T13:36:03.041Z,44.20
2017-10-19T13:38:29.159Z,44.10
2017-10-19T13:40:56.045Z,44.40
2017-10-19T13:43:22.269Z,44.30
2017-10-19T13:45:49.157Z,44.30
2017-10-19T13:48:15.437Z,44.30
2017-10-19T13:50:41.602Z,44.90
2017-10-19T13:53:07.774Z,43.30
2017-10-19T13:55:33.919Z,43.00
2017-10-19T13:58:00.084Z,43.90
2017-10-19T14:00:26.557Z,43.80
2017-10-19T14:02:52.708Z,45.10
2017-10-19T14:05:18.870Z,44.20
2017-10-19T14:07:45.757Z,44.50
2017-10-19T14:10:11.948Z,44.50
2017-10-19T14:12:38.229Z,44.80
2017-10-19T14:15:04.399Z,45.20
2017-10-19T14:17:31.034Z,43.60
2017-10-19T14:19:57.197Z,45.40
2017-10-19T14:22:23.420Z,47.70
2017-10-19T14:24:49.556Z,45.30
2017-10-19T14:27:15.723Z,44.40
2017-10-19T14:29:42.635Z,45.00
2017-10-19T14:32:10.034Z,45.10
2017-10-19T14:34:37.161Z,44.50
2017-10-19T14:37:03.325Z,45.10
2017-10-19T14:39:29.561Z,46.60
2017-10-19T14:41:55.708Z,47.20
2017-10-19T14:44:21.850Z,48.00
2017-10-19T14:46:48.026Z,46.40
2017-10-19T14:49:14.246Z,45.90
2017-10-19T14:51:40.419Z,46.20
2017-10-19T14:54:06.604Z,46.20
2017-10-19T14:56:33.238Z,46.10
2017-10-19T14:58:59.422Z,46.10
2017-10-19T15:01:26.591Z,45.50
2017-10-19T15:03:52.749Z,45.50
2017-10-19T15:06:19.026Z,45.90
2017-10-19T15:08:45.247Z,46.40
2017-10-19T15:11:11.485Z,45.70
2017-10-19T15:13:37.664Z,46.20
2017-10-19T15:16:04.024Z,45.90
2017-10-19T15:18:30.219Z,47.40
2017-10-19T15:20:56.388Z,47.10
2017-10-19T15:23:22.513Z,47.60
2017-10-19T15:25:48.784Z,47.80
2017-10-19T15:28:15.714Z,48.20
2017-10-19T15:30:42.121Z,48.10
2017-10-19T15:33:09.239Z,48.70
2017-10-19T15:35:35.587Z,48.60
2017-10-19T15:38:01.949Z,49.10
2017-10-19T15:40:29.088Z,50.30
2017-10-19T15:42:56.171Z,49.80
2017-10-19T15:45:23.418Z,50.20
2017-10-19T15:47:50.549Z,50.00
2017-10-19T15:50:16.888Z,50.00
2017-10-19T15:52:44.022Z,50.70
2017-10-19T15:55:10.575Z,50.70
2017-10-19T15:57:37.043Z,51.30
2017-10-19T16:00:03.424Z,51.20
2017-10-19T16:02:29.806Z,51.40
2017-10-19T16:04:56.154Z,51.50
2017-10-19T16:07:22.542Z,51.60
2017-10-19T16:09:48.910Z,51.40
2017-10-19T16:12:15.255Z,52.40
2017-10-19T16:14:41.592Z,52.30
2017-10-19T16:17:07.958Z,52.40
2017-10-19T16:19:34.308Z,52.60
2017-10-19T16:22:01.737Z,53.00
2017-10-19T16:24:28.060Z,53.50
2017-10-19T16:26:54.405Z,53.70
2017-10-19T16:29:20.762Z,53.70
2017-10-19T16:31:47.095Z,54.10
2017-10-19T16:36:44.597Z,54.00
2017-10-19T16:39:10.818Z,54.10
2017-10-19T16:41:36.954Z,54.90
2017-10-19T16:44:03.143Z,55.00
2017-10-19T16:46:29.312Z,55.30
2017-10-19T16:48:56.177Z,54.90
2017-10-19T16:51:24.857Z,54.80
2017-10-19T16:53:50.962Z,54.70
2017-10-19T16:56:17.897Z,55.60
2017-10-19T16:58:44.030Z,55.60
2017-10-19T17:01:11.021Z,54.90
2017-10-19T17:03:37.171Z,54.90
2017-10-19T17:06:07.805Z,55.20
2017-10-19T17:08:33.949Z,55.00
2017-10-19T17:11:00.110Z,54.40
2017-10-19T17:13:26.264Z,54.60
2017-10-19T17:15:52.498Z,55.00
2017-10-19T17:18:19.386Z,55.50
2017-10-19T17:20:50.808Z,55.10
2017-10-19T17:23:16.977Z,55.10
2017-10-19T17:25:43.104Z,54.60
2017-10-19T17:28:09.267Z,55.20
2017-10-19T17:30:36.148Z,54.90
2017-10-19T17:33:03.045Z,54.80
2017-10-19T17:35:29.234Z,54.80
2017-10-19T17:38:00.069Z,54.70
2017-10-19T17:40:26.257Z,54.40
2017-10-19T17:42:53.186Z,54.80
2017-10-19T17:45:19.365Z,55.00
2017-10-19T17:47:45.504Z,54.10
2017-10-19T17:50:11.655Z,54.20
2017-10-19T17:52:37.817Z,54.70
2017-10-19T17:55:06.256Z,54.60
2017-10-19T17:57:32.405Z,55.00
2017-10-19T17:59:58.554Z,54.60
2017-10-19T18:02:24.755Z,55.30
2017-10-19T18:04:50.883Z,54.50
2017-10-19T18:07:17.416Z,55.10
2017-10-19T18:09:44.288Z,54.80
2017-10-19T18:12:11.751Z,54.40
2017-10-19T18:14:37.938Z,54.40
2017-10-19T18:17:04.131Z,54.80
2017-10-19T18:19:31.107Z,54.80
2017-10-19T18:21:57.997Z,54.70
2017-10-19T18:24:24.149Z,54.70
2017-10-19T18:26:50.420Z,54.30
2017-10-19T18:29:23.188Z,54.60
2017-10-19T18:31:49.316Z,54.50
2017-10-19T18:34:15.430Z,54.20
2017-10-19T18:36:41.558Z,54.20
2017-10-19T18:39:07.723Z,54.40
2017-10-19T18:41:33.844Z,53.80
2017-10-19T18:43:59.970Z,54.10
2017-10-19T18:46:26.873Z,54.20
2017-10-19T18:48:56.666Z,54.30
2017-10-19T18:51:22.776Z,53.70
2017-10-19T18:53:48.902Z,54.00
2017-10-19T18:56:15.034Z,53.60
2017-10-19T18:58:41.305Z,53.30
2017-10-19T19:01:07.472Z,53.30
2017-10-19T19:03:33.683Z,52.90
2017-10-19T19:05:59.830Z,53.00
2017-10-19T19:08:25.986Z,53.30
2017-10-19T19:10:58.181Z,53.30
2017-10-19T19:13:24.300Z,54.30
2017-10-19T19:15:51.156Z,53.70
2017-10-19T19:18:18.853Z,53.40
2017-10-19T19:20:44.992Z,53.40
2017-10-19T19:23:11.241Z,53.00
2017-10-19T19:25:37.431Z,53.70
2017-10-19T19:28:03.565Z,54.20
2017-10-19T19:30:29.726Z,54.60
2017-10-19T19:32:56.614Z,54.40
2017-10-19T19:35:22.749Z,54.40
2017-10-19T19:37:48.888Z,54.10
2017-10-19T19:40:15.046Z,53.90
2017-10-19T19:42:41.249Z,53.90
2017-10-19T19:45:07.494Z,54.00
2017-10-19T19:47:34.373Z,53.90
2017-10-19T19:50:00.549Z,54.00
2017-10-19T19:52:26.717Z,53.80
2017-10-19T19:54:52.873Z,53.90
2017-10-19T19:57:19.124Z,55.30
2017-10-19T19:59:45.371Z,54.80
2017-10-19T20:02:11.523Z,55.30
2017-10-19T20:04:37.762Z,56.00
2017-10-19T20:07:04.621Z,55.70
2017-10-19T20:09:30.762Z,56.10
2017-10-19T20:11:57.620Z,55.90
2017-10-19T20:14:24.523Z,56.40
2017-10-19T20:16:50.784Z,56.40
2017-10-19T20:19:16.921Z,56.40
2017-10-19T20:21:43.056Z,56.30
2017-10-19T20:24:09.238Z,56.40
2017-10-19T20:26:35.365Z,56.80
2017-10-19T20:29:01.598Z,57.00
2017-10-19T20:31:28.461Z,56.80
2017-10-19T20:33:55.380Z,56.90
2017-10-19T20:36:21.537Z,56.80
2017-10-19T20:38:48.450Z,56.20
2017-10-19T20:41:14.613Z,56.20
2017-10-19T20:43:40.764Z,56.50
2017-10-19T20:46:06.937Z,55.80
2017-10-19T20:48:33.085Z,56.50
2017-10-19T20:50:59.208Z,57.00
2017-10-19T20:53:25.825Z,56.50
2017-10-19T20:55:51.946Z,56.80
2017-10-19T20:58:18.077Z,56.80
2017-10-19T21:00:44.218Z,57.10
2017-10-19T21:03:10.399Z,56.70
2017-10-19T21:05:36.713Z,56.90
2017-10-19T21:08:02.915Z,56.00
2017-10-19T21:10:29.104Z,56.90
2017-10-19T21:12:56.158Z,57.00
2017-10-19T21:15:22.434Z,56.50
2017-10-19T21:17:48.712Z,56.40
2017-10-19T21:20:14.954Z,56.80
2017-10-19T21:22:41.579Z,56.50
2017-10-19T21:25:07.756Z,57.00
2017-10-19T21:27:33.911Z,57.00
2017-10-19T21:30:00.077Z,56.70
2017-10-19T21:32:26.242Z,56.60
2017-10-19T21:34:53.125Z,55.50
2017-10-19T21:37:19.244Z,55.50
2017-10-19T21:39:45.402Z,55.50
2017-10-19T21:42:11.573Z,56.10
2017-10-19T21:44:37.715Z,56.10
2017-10-19T21:47:03.905Z,55.70
2017-10-19T21:49:30.047Z,55.90
2017-10-19T21:51:57.052Z,55.50
2017-10-19T21:54:23.233Z,55.50
2017-10-19T21:56:49.372Z,54.70
2017-10-19T21:59:15.521Z,54.70
2017-10-19T22:01:42.653Z,54.70
2017-10-19T22:04:08.809Z,54.50
2017-10-19T22:06:34.980Z,54.30
2017-10-19T22:09:01.903Z,54.10
2017-10-19T22:11:28.202Z,54.10
2017-10-19T22:13:54.516Z,52.70
2017-10-19T22:16:20.868Z,53.00
2017-10-19T22:18:47.428Z,52.30
2017-10-19T22:21:14.322Z,52.00
2017-10-19T22:23:40.460Z,52.00
2017-10-19T22:26:06.607Z,51.70
2017-10-19T22:28:32.833Z,52.00
2017-10-19T22:30:59.161Z,51.40
2017-10-19T22:33:25.506Z,50.90
2017-10-19T22:35:51.818Z,51.80
2017-10-19T22:38:18.902Z,51.60
2017-10-19T22:40:45.034Z,51.50
2017-10-19T22:43:11.296Z,51.50
2017-10-19T22:45:37.719Z,51.20
2017-10-19T22:48:04.940Z,51.10
2017-10-19T22:50:31.094Z,51.10
2017-10-19T22:52:58.220Z,51.30
2017-10-19T22:55:24.343Z,51.30
2017-10-19T22:57:50.599Z,50.60
2017-10-19T23:00:16.960Z,50.20
2017-10-19T23:02:43.095Z,52.20
2017-10-19T23:05:09.442Z,50.50
2017-10-19T23:07:35.774Z,49.30
2017-10-19T23:10:02.475Z,49.60
2017-10-19T23:12:28.618Z,50.40
2017-10-19T23:14:54.759Z,50.40
2017-10-19T23:17:21.837Z,50.60
2017-10-19T23:19:48.402Z,50.60
2017-10-19T23:22:14.585Z,50.10
2017-10-19T23:24:40.769Z,49.40
2017-10-19T23:27:07.113Z,48.90
2017-10-19T23:29:33.358Z,48.20
2017-10-19T23:31:59.730Z,49.10
2017-10-19T23:34:26.073Z,49.60
2017-10-19T23:36:52.434Z,49.00
2017-10-19T23:39:19.185Z,50.10
2017-10-19T23:41:45.563Z,49.20
2017-10-19T23:44:11.893Z,49.30
2017-10-19T23:46:38.252Z,49.00
2017-10-19T23:49:04.577Z,48.80
2017-10-19T23:51:30.991Z,49.10
2017-10-19T23:53:57.428Z,46.80
2017-10-19T23:56:23.772Z,46.90
2017-10-19T23:58:50.906Z,47.70
